createdAt,value
2019-03-05T00:01:59.386Z,99062.80
2019-03-05T00:04:31.339Z,99050.53
2019-03-05T00:07:03.182Z,99063.70
2019-03-05T00:09:35.206Z,99075.43
2019-03-05T00:12:07.186Z,99075.55
2019-03-05T00:14:39.138Z,99076.41
2019-03-05T00:17:11.055Z,99081.02
2019-03-05T00:19:42.982Z,99076.14
2019-03-05T00:22:16.483Z,99084.78
2019-03-05T00:25:08.834Z,99074.05
2019-03-05T00:28:07.271Z,99089.73
2019-03-05T00:30:47.794Z,99087.56
2019-03-05T00:33:55.581Z,99084.11
2019-03-05T00:37:04.068Z,99077.73
2019-03-05T00:40:37.443Z,99082.01
2019-03-05T00:43:47.085Z,99088.09
2019-03-05T00:47:01.822Z,99091.58
2019-03-05T00:50:16.266Z,99088.31
2019-03-05T00:53:50.276Z,99094.02
2019-03-05T00:56:46.057Z,99092.36
2019-03-05T00:59:52.300Z,99098.90
2019-03-05T01:03:02.446Z,99098.75
2019-03-05T01:06:22.288Z,99095.26
2019-03-05T01:08:56.262Z,99096.34
2019-03-05T01:11:28.926Z,99094.17
2019-03-05T01:14:01.335Z,99089.33
2019-03-05T01:16:34.476Z,99088.04
2019-03-05T01:19:06.383Z,99079.31
2019-03-05T01:21:38.300Z,99084.61
2019-03-05T01:24:10.337Z,99085.13
2019-03-05T01:26:42.210Z,99091.18
2019-03-05T01:29:14.201Z,99093.39
2019-03-05T01:31:58.982Z,99084.65
2019-03-05T01:34:41.923Z,99082.23
2019-03-05T01:37:13.891Z,99083.85
2019-03-05T01:39:57.991Z,99092.11
2019-03-05T01:42:29.828Z,99094.80
2019-03-05T01:45:01.714Z,99089.68
2019-03-05T01:47:34.764Z,99099.37
2019-03-05T01:50:08.213Z,99105.38
2019-03-05T01:52:40.015Z,99091.59
2019-03-05T01:55:11.899Z,99097.63
2019-03-05T01:57:43.774Z,99097.22
2019-03-05T02:00:16.154Z,99103.92
2019-03-05T02:02:49.288Z,99105.27
2019-03-05T02:05:22.062Z,99107.38
2019-03-05T02:07:54.561Z,99106.52
2019-03-05T02:10:27.725Z,99109.28
2019-03-05T02:12:59.616Z,99110.97
2019-03-05T02:15:31.431Z,99112.91
2019-03-05T02:18:03.413Z,99111.17
2019-03-05T02:20:35.300Z,99118.64
2019-03-05T02:23:32.824Z,99118.77
2019-03-05T02:27:08.140Z,99122.95
2019-03-05T02:30:26.871Z,99115.73
2019-03-05T02:33:51.042Z,99118.00
2019-03-05T02:37:07.444Z,99115.93
2019-03-05T02:40:23.575Z,99101.52
2019-03-05T02:43:31.465Z,99101.91
2019-03-05T02:46:49.391Z,99104.15
2019-03-05T02:49:36.698Z,99105.88
2019-03-05T02:53:14.029Z,99105.56
2019-03-05T02:56:25.114Z,99094.71
2019-03-05T02:58:54.415Z,99109.24
2019-03-05T03:01:50.929Z,99099.26
2019-03-05T03:04:26.014Z,99101.44
2019-03-05T03:06:57.914Z,99104.34
2019-03-05T03:10:16.399Z,99102.33
2019-03-05T03:12:50.827Z,99109.02
2019-03-05T03:15:22.941Z,99103.26
2019-03-05T03:17:56.039Z,99109.34
2019-03-05T03:20:28.091Z,99109.66
2019-03-05T03:23:03.174Z,99108.34
2019-03-05T03:25:35.102Z,99102.55
2019-03-05T03:28:08.012Z,99103.28
2019-03-05T03:30:40.041Z,99096.05
2019-03-05T03:33:16.097Z,99104.47
2019-03-05T03:35:48.044Z,99101.33
2019-03-05T03:38:19.965Z,99101.75
2019-03-05T03:40:52.010Z,99101.51
2019-03-05T03:43:23.898Z,99106.17
2019-03-05T03:45:55.784Z,99095.98
2019-03-05T03:48:27.802Z,99101.53
2019-03-05T03:50:59.982Z,99108.89
2019-03-05T03:53:32.015Z,99104.25
2019-03-05T03:56:03.971Z,99095.40
2019-03-05T03:58:35.783Z,99102.72
2019-03-05T04:01:16.077Z,99095.07
2019-03-05T04:03:48.178Z,99095.45
2019-03-05T04:06:29.208Z,99100.10
2019-03-05T04:09:01.516Z,99107.61
2019-03-05T04:11:37.761Z,99095.41
2019-03-05T04:14:08.950Z,99094.66
2019-03-05T04:16:41.222Z,99095.19
2019-03-05T04:19:15.441Z,99099.66
2019-03-05T04:21:50.638Z,99096.95
2019-03-05T04:24:26.606Z,99100.02
2019-03-05T04:26:58.411Z,99099.98
2019-03-05T04:29:36.776Z,99110.73
2019-03-05T04:32:11.220Z,99090.59
2019-03-05T04:34:43.481Z,99105.28
2019-03-05T04:37:15.904Z,99100.44
2019-03-05T04:39:51.226Z,99096.86
2019-03-05T04:42:23.150Z,99101.25
2019-03-05T04:45:01.156Z,99089.61
2019-03-05T04:47:39.232Z,99097.36
2019-03-05T04:50:20.961Z,99110.02
2019-03-05T04:52:58.242Z,99119.06
2019-03-05T04:55:30.104Z,99107.50
2019-03-05T04:58:04.112Z,99099.78
2019-03-05T05:00:36.148Z,99104.03
2019-03-05T05:03:09.370Z,99116.80
2019-03-05T05:05:41.184Z,99115.80
2019-03-05T05:08:13.188Z,99115.55
2019-03-05T05:10:45.073Z,99120.73
2019-03-05T05:13:17.102Z,99120.66
2019-03-05T05:15:48.980Z,99125.67
2019-03-05T05:18:20.974Z,99124.68
2019-03-05T05:20:53.069Z,99131.31
2019-03-05T05:23:24.999Z,99132.02
2019-03-05T05:25:56.956Z,99141.46
2019-03-05T05:28:28.820Z,99142.50
2019-03-05T05:31:00.721Z,99124.77
2019-03-05T05:33:33.119Z,99135.21
2019-03-05T05:36:05.357Z,99137.00
2019-03-05T05:38:40.435Z,99148.92
2019-03-05T05:41:12.516Z,99136.16
2019-03-05T05:47:23.392Z,99153.92
2019-03-05T05:49:55.269Z,99147.57
2019-03-05T05:52:27.740Z,99146.75
2019-03-05T05:54:59.632Z,99163.30
2019-03-05T05:57:32.355Z,99165.37
2019-03-05T06:00:04.494Z,99169.17
2019-03-05T06:02:36.584Z,99169.13
2019-03-05T06:05:08.795Z,99171.30
2019-03-05T06:07:41.896Z,99179.83
2019-03-05T06:10:14.127Z,99188.25
2019-03-05T06:12:46.212Z,99195.34
2019-03-05T06:15:18.484Z,99191.81
2019-03-05T06:17:58.851Z,99191.39
2019-03-05T06:20:30.920Z,99202.89
2019-03-05T06:23:02.924Z,99199.00
2019-03-05T06:25:34.989Z,99193.20
2019-03-05T06:28:07.268Z,99204.28
2019-03-05T06:30:39.484Z,99204.59
2019-03-05T06:33:11.438Z,99215.25
2019-03-05T06:35:43.975Z,99209.17
2019-03-05T06:38:16.087Z,99223.63
2019-03-05T06:40:48.288Z,99226.88
2019-03-05T06:43:20.525Z,99218.78
2019-03-05T06:45:52.631Z,99224.33
2019-03-05T06:48:24.693Z,99228.24
2019-03-05T06:50:56.687Z,99227.42
2019-03-05T06:53:28.713Z,99227.58
2019-03-05T06:56:00.605Z,99248.72
2019-03-05T06:58:32.498Z,99249.05
2019-03-05T07:01:04.752Z,99245.44
2019-03-05T07:03:36.733Z,99251.05
2019-03-05T07:06:48.843Z,99269.08
2019-03-05T07:10:24.503Z,99255.73
2019-03-05T07:13:21.470Z,99261.35
2019-03-05T07:16:29.055Z,99269.38
2019-03-05T07:19:57.598Z,99266.83
2019-03-05T07:22:45.861Z,99256.19
2019-03-05T07:25:17.761Z,99273.14
2019-03-05T07:27:59.626Z,99273.18
2019-03-05T07:30:31.511Z,99277.34
2019-03-05T07:33:03.481Z,99287.38
2019-03-05T07:35:36.050Z,99283.74
2019-03-05T07:38:08.176Z,99292.73
2019-03-05T07:40:40.098Z,99296.48
2019-03-05T07:43:12.061Z,99293.36
2019-03-05T07:45:44.074Z,99288.94
2019-03-05T07:48:16.110Z,99295.54
2019-03-05T07:50:48.017Z,99298.52
2019-03-05T07:53:19.999Z,99299.57
2019-03-05T07:55:51.864Z,99302.92
2019-03-05T07:58:23.799Z,99298.00
2019-03-05T08:00:55.784Z,99309.46
2019-03-05T08:03:27.688Z,99299.83
2019-03-05T08:05:59.525Z,99304.97
2019-03-05T08:09:44.459Z,99311.00
2019-03-05T08:13:06.942Z,99317.34
2019-03-05T08:16:10.380Z,99318.19
2019-03-05T08:18:42.199Z,99332.18
2019-03-05T08:21:14.224Z,99328.68
2019-03-05T08:23:48.379Z,99323.67
2019-03-05T08:26:19.791Z,99335.20
2019-03-05T08:28:51.714Z,99343.53
2019-03-05T08:31:23.567Z,99344.78
2019-03-05T08:33:55.518Z,99348.81
2019-03-05T08:36:27.439Z,99354.83
2019-03-05T08:38:59.430Z,99355.59
2019-03-05T08:41:31.360Z,99355.44
2019-03-05T08:44:03.320Z,99344.00
2019-03-05T08:46:35.348Z,99358.53
2019-03-05T08:49:07.286Z,99366.31
2019-03-05T08:51:39.217Z,99381.68
2019-03-05T08:54:11.078Z,99381.42
2019-03-05T08:56:42.955Z,99394.95
2019-03-05T08:59:14.815Z,99397.03
2019-03-05T09:01:46.735Z,99405.63
2019-03-05T09:04:18.623Z,99416.81
2019-03-05T09:06:51.937Z,99418.34
2019-03-05T09:09:23.782Z,99421.56
2019-03-05T09:11:56.055Z,99423.67
2019-03-05T09:14:27.946Z,99425.95
2019-03-05T09:16:59.890Z,99432.62
2019-03-05T09:19:31.818Z,99436.13
2019-03-05T09:22:04.892Z,99446.79
2019-03-05T09:24:36.858Z,99444.15
2019-03-05T09:27:08.747Z,99447.17
2019-03-05T09:29:40.640Z,99446.11
2019-03-05T09:32:12.576Z,99457.73
2019-03-05T09:34:45.628Z,99455.27
2019-03-05T09:37:17.551Z,99460.95
2019-03-05T09:39:49.551Z,99452.05
2019-03-05T09:42:21.406Z,99458.67
2019-03-05T09:44:54.439Z,99470.62
2019-03-05T09:47:26.346Z,99451.92
2019-03-05T09:49:59.355Z,99458.83
2019-03-05T09:52:31.301Z,99453.55
2019-03-05T09:55:03.381Z,99438.77
2019-03-05T09:57:37.966Z,99438.59
2019-03-05T10:00:14.830Z,99438.00
2019-03-05T10:02:46.791Z,99440.50
2019-03-05T10:05:18.754Z,99450.33
2019-03-05T10:07:50.882Z,99440.59
2019-03-05T10:10:25.177Z,99440.30
2019-03-05T10:12:59.124Z,99457.36
2019-03-05T10:15:31.718Z,99453.30
2019-03-05T10:18:12.162Z,99458.03
2019-03-05T10:20:37.461Z,99452.27
2019-03-05T10:23:09.356Z,99458.66
2019-03-05T10:25:41.364Z,99465.86
2019-03-05T10:28:13.424Z,99449.89
2019-03-05T10:30:45.467Z,99457.19
2019-03-05T10:33:18.428Z,99458.19
2019-03-05T10:35:50.467Z,99462.08
2019-03-05T10:38:22.455Z,99464.04
2019-03-05T10:40:54.770Z,99454.86
2019-03-05T10:43:26.693Z,99454.02
2019-03-05T10:45:58.609Z,99463.89
2019-03-05T10:48:30.766Z,99465.34
2019-03-05T10:51:02.648Z,99456.69
2019-03-05T10:53:34.813Z,99458.56
2019-03-05T10:56:07.626Z,99455.72
2019-03-05T10:58:39.960Z,99452.38
2019-03-05T11:01:12.569Z,99458.13
2019-03-05T11:03:44.685Z,99461.01
2019-03-05T11:06:16.659Z,99465.95
2019-03-05T11:08:50.432Z,99463.92
2019-03-05T11:11:22.447Z,99459.22
2019-03-05T11:13:54.430Z,99471.22
2019-03-05T11:16:30.791Z,99464.72
2019-03-05T11:19:00.539Z,99455.31
2019-03-05T11:21:32.523Z,99455.41
2019-03-05T11:24:04.677Z,99467.03
2019-03-05T11:26:36.639Z,99458.06
2019-03-05T11:29:08.577Z,99457.90
2019-03-05T11:31:40.845Z,99455.07
2019-03-05T11:34:13.313Z,99467.19
2019-03-05T11:36:45.486Z,99454.19
2019-03-05T11:39:17.842Z,99473.55
2019-03-05T11:41:49.760Z,99472.75
2019-03-05T11:50:05.759Z,99472.09
2019-03-05T11:52:37.940Z,99475.05
2019-03-05T11:55:12.563Z,99474.97
2019-03-05T11:57:44.651Z,99473.84
2019-03-05T12:00:29.338Z,99472.83
2019-03-05T12:03:01.318Z,99484.00
2019-03-05T12:05:33.391Z,99480.45
2019-03-05T12:08:05.478Z,99476.45
2019-03-05T12:10:37.491Z,99472.64
2019-03-05T12:13:09.847Z,99464.64
2019-03-05T12:15:41.945Z,99485.59
2019-03-05T12:18:13.919Z,99494.51
2019-03-05T12:20:45.835Z,99495.06
2019-03-05T12:23:17.854Z,99495.98
2019-03-05T12:25:49.848Z,99497.00
2019-03-05T12:28:21.811Z,99510.15
2019-03-05T12:30:53.943Z,99502.95
2019-03-05T12:33:25.821Z,99495.42
2019-03-05T12:35:57.650Z,99498.68
2019-03-05T12:38:29.525Z,99504.27
2019-03-05T12:41:01.369Z,99500.13
2019-03-05T12:43:33.336Z,99490.77
2019-03-05T12:46:05.331Z,99493.41
2019-03-05T12:48:40.290Z,99487.25
2019-03-05T12:51:11.982Z,99491.43
2019-03-05T12:53:43.949Z,99492.80
2019-03-05T12:56:23.441Z,99503.81
2019-03-05T12:58:49.412Z,99498.94
2019-03-05T13:01:21.340Z,99502.12
2019-03-05T13:03:53.252Z,99507.02
2019-03-05T13:06:25.073Z,99521.73
2019-03-05T13:08:57.044Z,99516.13
2019-03-05T13:11:29.218Z,99512.13
2019-03-05T13:14:06.096Z,99518.52
2019-03-05T13:16:35.250Z,99512.59
2019-03-05T13:19:09.559Z,99521.63
2019-03-05T13:21:44.260Z,99511.05
2019-03-05T13:24:15.443Z,99509.87
2019-03-05T13:26:47.300Z,99519.09
2019-03-05T13:29:20.582Z,99526.58
2019-03-05T13:31:53.703Z,99515.27
2019-03-05T13:34:25.622Z,99523.39
2019-03-05T13:36:57.545Z,99523.70
2019-03-05T13:39:29.412Z,99526.98
2019-03-05T13:42:01.226Z,99528.55
2019-03-05T13:44:35.565Z,99552.42
2019-03-05T13:47:13.345Z,99566.20
2019-03-05T13:50:24.190Z,99555.52
2019-03-05T13:53:26.609Z,99559.04
2019-03-05T13:57:00.613Z,99576.59
2019-03-05T13:59:50.588Z,99582.89
2019-03-05T14:02:29.954Z,99596.72
2019-03-05T14:05:38.761Z,99608.34
2019-03-05T14:09:23.909Z,99623.16
2019-03-05T14:11:55.928Z,99657.98
2019-03-05T14:14:32.128Z,99662.77
2019-03-05T14:17:37.130Z,99667.01
2019-03-05T14:20:13.563Z,99655.03
2019-03-05T14:22:45.495Z,99640.37
2019-03-05T14:25:20.561Z,99625.09
2019-03-05T14:27:52.551Z,99615.00
2019-03-05T14:30:24.612Z,99597.09
2019-03-05T14:32:56.523Z,99593.30
2019-03-05T14:35:32.200Z,99590.21
2019-03-05T14:38:04.255Z,99594.52
2019-03-05T14:40:37.917Z,99596.75
2019-03-05T14:43:10.268Z,99602.57
2019-03-05T14:45:42.200Z,99604.79
2019-03-05T14:48:19.829Z,99617.58
2019-03-05T14:50:51.919Z,99615.38
2019-03-05T14:53:23.787Z,99618.04
2019-03-05T14:55:55.741Z,99619.41
2019-03-05T14:58:28.037Z,99541.66
2019-03-05T15:00:59.979Z,99623.27
2019-03-05T15:03:31.851Z,99617.33
2019-03-05T15:06:04.261Z,99626.58
2019-03-05T15:08:36.304Z,99621.73
2019-03-05T15:11:09.694Z,99632.26
2019-03-05T15:13:41.815Z,99626.05
2019-03-05T15:16:14.079Z,99632.75
2019-03-05T15:18:48.982Z,99632.88
2019-03-05T15:21:21.367Z,99632.17
2019-03-05T15:23:53.435Z,99637.98
2019-03-05T15:26:28.737Z,99637.15
2019-03-05T15:29:00.689Z,99652.50
2019-03-05T15:31:34.306Z,99658.48
2019-03-05T15:34:07.278Z,99657.98
2019-03-05T15:36:41.385Z,99676.42
2019-03-05T15:39:15.622Z,99674.95
2019-03-05T15:41:48.201Z,99681.62
2019-03-05T15:44:20.926Z,99675.05
2019-03-05T15:46:56.280Z,99680.28
2019-03-05T15:49:28.792Z,99673.02
2019-03-05T15:52:01.208Z,99669.83
2019-03-05T15:54:33.323Z,99669.80
2019-03-05T15:57:05.556Z,99677.08
2019-03-05T15:59:38.052Z,99684.32
2019-03-05T16:02:10.827Z,99678.27
2019-03-05T16:04:46.177Z,99679.21
2019-03-05T16:07:22.999Z,99679.95
2019-03-05T16:09:55.419Z,99680.58
2019-03-05T16:12:27.497Z,99675.16
2019-03-05T16:15:05.196Z,99687.17
2019-03-05T16:17:37.788Z,99682.36
2019-03-05T16:20:11.832Z,99681.85
2019-03-05T16:22:43.972Z,99693.52
2019-03-05T16:25:16.998Z,99694.59
2019-03-05T16:27:50.927Z,99690.35
2019-03-05T16:30:42.504Z,99690.00
2019-03-05T16:33:32.387Z,99697.57
2019-03-05T16:36:29.198Z,99695.06
2019-03-05T16:39:10.998Z,99701.30
2019-03-05T16:42:05.217Z,99703.11
2019-03-05T16:44:47.603Z,99706.19
2019-03-05T16:47:31.215Z,99720.69
2019-03-05T16:50:21.014Z,99720.33
2019-03-05T16:53:26.126Z,99723.91
2019-03-05T16:56:16.174Z,99728.75
2019-03-05T16:59:05.894Z,99731.77
2019-03-05T17:01:44.998Z,99733.09
2019-03-05T17:04:39.190Z,99739.64
2019-03-05T17:07:35.910Z,99746.10
2019-03-05T17:10:37.778Z,99746.48
2019-03-05T17:13:10.622Z,99766.52
2019-03-05T17:15:43.161Z,99768.20
2019-03-05T17:18:15.270Z,99782.16
2019-03-05T17:20:47.412Z,99799.20
2019-03-05T17:23:19.524Z,99814.32
2019-03-05T17:25:51.608Z,99823.13
2019-03-05T17:28:23.522Z,99836.33
2019-03-05T17:30:55.590Z,99831.84
2019-03-05T17:33:27.636Z,99839.55
2019-03-05T17:35:59.766Z,99798.04
2019-03-05T17:38:32.120Z,99800.15
2019-03-05T17:41:04.157Z,99805.53
2019-03-05T17:43:36.675Z,99814.55
2019-03-05T17:46:08.797Z,99823.91
2019-03-05T17:48:42.538Z,99831.95
2019-03-05T17:51:14.622Z,99844.77
2019-03-05T17:53:48.232Z,99840.84
2019-03-05T17:56:20.354Z,99852.22
2019-03-05T17:58:52.306Z,99851.84
2019-03-05T18:01:24.640Z,99860.27
2019-03-05T18:03:56.651Z,99865.70
2019-03-05T18:06:28.687Z,99869.67
2019-03-05T18:09:01.644Z,99874.42
2019-03-05T18:11:35.470Z,99886.63
2019-03-05T18:14:08.076Z,99891.00
2019-03-05T18:16:40.291Z,99904.53
2019-03-05T18:19:12.398Z,99909.77
2019-03-05T18:21:44.546Z,99911.97
2019-03-05T18:24:16.487Z,99913.34
2019-03-05T18:26:48.807Z,99922.96
2019-03-05T18:29:20.799Z,99920.34
2019-03-05T18:31:53.112Z,99924.69
2019-03-05T18:34:27.512Z,99927.70
2019-03-05T18:36:59.518Z,99941.22
2019-03-05T18:39:32.916Z,99945.09
2019-03-05T18:42:05.082Z,99941.54
2019-03-05T18:44:39.542Z,99953.27
2019-03-05T18:47:11.349Z,99970.20
2019-03-05T18:49:43.506Z,99986.08
2019-03-05T18:52:15.656Z,100000.59
2019-03-05T18:54:47.895Z,99995.72
2019-03-05T18:57:20.099Z,99982.74
2019-03-05T18:59:52.515Z,99990.47
2019-03-05T19:02:24.994Z,99993.52
2019-03-05T19:04:57.967Z,99994.33
2019-03-05T19:07:30.725Z,100010.57
2019-03-05T19:10:02.962Z,100031.92
2019-03-05T19:12:36.808Z,100064.07
2019-03-05T19:15:10.701Z,100081.72
2019-03-05T19:17:45.106Z,100091.95
2019-03-05T19:20:22.219Z,100079.84
2019-03-05T19:22:54.607Z,100061.18
2019-03-05T19:25:29.129Z,100061.71
2019-03-05T19:28:01.506Z,100058.71
2019-03-05T19:30:35.629Z,100057.56
2019-03-05T19:33:07.859Z,100050.58
2019-03-05T19:35:39.898Z,100053.72
2019-03-05T19:38:12.118Z,100058.94
2019-03-05T19:40:44.365Z,100063.35
2019-03-05T19:43:16.530Z,100065.07
2019-03-05T19:45:48.583Z,100075.11
2019-03-05T19:48:27.458Z,100081.19
2019-03-05T19:50:55.385Z,100086.40
2019-03-05T19:53:29.815Z,100090.77
2019-03-05T19:56:02.343Z,100099.08
2019-03-05T19:58:35.959Z,100096.05
2019-03-05T20:01:17.180Z,100092.55
2019-03-05T20:03:49.503Z,100097.79
2019-03-05T20:06:22.441Z,100097.38
2019-03-05T20:08:55.987Z,100100.02
2019-03-05T20:11:28.641Z,100107.42
2019-03-05T20:14:00.992Z,100104.79
2019-03-05T20:16:33.286Z,100112.64
2019-03-05T20:19:05.750Z,100120.05
2019-03-05T20:21:43.717Z,100127.47
2019-03-05T20:24:16.586Z,100122.67
2019-03-05T20:26:54.749Z,100125.74
2019-03-05T20:29:27.405Z,100132.70
2019-03-05T20:32:00.539Z,100141.44
2019-03-05T20:34:36.942Z,100141.84
2019-03-05T20:37:10.190Z,100146.22
2019-03-05T20:39:46.644Z,100146.63
2019-03-05T20:42:19.314Z,100150.56
2019-03-05T20:44:52.632Z,100154.46
2019-03-05T20:47:28.504Z,100151.41
2019-03-05T20:50:01.242Z,100166.70
2019-03-05T20:52:37.593Z,100166.66
2019-03-05T20:55:15.091Z,100172.78
2019-03-05T20:57:48.642Z,100173.24
2019-03-05T21:00:32.113Z,100176.30
2019-03-05T21:03:06.269Z,100178.91
2019-03-05T21:05:43.537Z,100188.07
2019-03-05T21:08:29.101Z,100194.66
2019-03-05T21:12:56.504Z,100193.80
2019-03-05T21:14:49.220Z,100195.95
2019-03-05T21:17:21.057Z,100199.87
2019-03-05T21:19:53.262Z,100202.05
2019-03-05T21:22:25.469Z,100195.91
2019-03-05T21:24:57.788Z,100213.37
2019-03-05T21:27:34.814Z,100207.72
2019-03-05T21:30:03.602Z,100208.62
2019-03-05T21:32:35.955Z,100212.54
2019-03-05T21:35:09.581Z,100208.19
2019-03-05T21:37:41.681Z,100216.92
2019-03-05T21:40:23.181Z,100223.89
2019-03-05T21:42:55.455Z,100221.27
2019-03-05T21:45:34.454Z,100224.75
2019-03-05T21:48:07.484Z,100228.70
2019-03-05T21:50:39.557Z,100230.44
2019-03-05T21:53:11.656Z,100222.12
2019-03-05T21:55:43.708Z,100231.30
2019-03-05T21:58:17.020Z,100231.28
2019-03-05T22:00:48.980Z,100238.70
2019-03-05T22:03:21.029Z,100244.38
2019-03-05T22:05:53.044Z,100252.65
2019-03-05T22:08:25.247Z,100255.70
2019-03-05T22:10:57.328Z,100253.50
2019-03-05T22:13:29.820Z,100262.66
2019-03-05T22:16:02.176Z,100268.30
2019-03-05T22:18:34.662Z,100267.41
2019-03-05T22:21:07.254Z,100269.56
2019-03-05T22:23:39.451Z,100270.39
2019-03-05T22:26:11.328Z,100279.08
2019-03-05T22:28:43.371Z,100277.70
2019-03-05T22:31:15.293Z,100275.52
2019-03-05T22:33:47.256Z,100289.44
2019-03-05T22:36:19.191Z,100294.63
2019-03-05T22:38:51.328Z,100295.92
2019-03-05T22:41:23.206Z,100301.49
2019-03-05T22:43:55.283Z,100309.34
2019-03-05T22:46:27.262Z,100315.42
2019-03-05T22:48:59.444Z,100315.86
2019-03-05T22:51:31.412Z,100315.80
2019-03-05T22:54:03.462Z,100323.65
2019-03-05T22:56:35.287Z,100318.37
2019-03-05T22:59:08.435Z,100321.47
2019-03-05T23:01:43.338Z,100326.23
2019-03-05T23:04:21.091Z,100328.52
2019-03-05T23:06:53.170Z,100337.69
2019-03-05T23:09:26.949Z,100338.06
2019-03-05T23:11:58.992Z,100339.87
2019-03-05T23:14:31.063Z,100340.27
2019-03-05T23:17:03.703Z,100346.72
2019-03-05T23:19:36.022Z,100349.75
2019-03-05T23:22:08.259Z,100347.95
2019-03-05T23:24:40.414Z,100349.66
2019-03-05T23:27:12.546Z,100356.20
2019-03-05T23:29:46.007Z,100350.97
2019-03-05T23:32:20.061Z,100352.33
2019-03-05T23:34:53.047Z,100350.58
2019-03-05T23:37:25.028Z,100358.38
2019-03-05T23:39:56.898Z,100357.48
2019-03-05T23:42:28.901Z,100357.89
2019-03-05T23:45:00.771Z,100360.88
2019-03-05T23:47:35.543Z,100370.00
2019-03-05T23:50:07.753Z,100372.48
2019-03-05T23:52:42.264Z,100366.79
2019-03-05T23:55:14.751Z,100372.80
2019-03-05T23:57:47.048Z,100376.69
